createdAt,value
2017-10-17T00:00:46.477Z,16.30
2017-10-17T00:03:12.688Z,16.30
2017-10-17T00:05:38.889Z,16.20
2017-10-17T00:08:05.201Z,16.10
2017-10-17T00:10:32.153Z,16.10
2017-10-17T00:12:58.381Z,16.10
2017-10-17T00:15:24.561Z,16.10
2017-10-17T00:17:50.781Z,16.10
2017-10-17T00:20:17.005Z,16.10
2017-10-17T00:22:43.216Z,16.10
2017-10-17T00:25:09.428Z,16.10
2017-10-17T00:27:35.661Z,16.10
2017-10-17T00:30:01.880Z,16.00
2017-10-17T00:32:44.900Z,16.00
2017-10-17T00:35:17.069Z,16.00
2017-10-17T00:37:43.253Z,16.00
2017-10-17T00:40:09.461Z,16.00
2017-10-17T00:42:35.649Z,16.00
2017-10-17T00:45:01.913Z,16.00
2017-10-17T00:47:28.105Z,16.00
2017-10-17T00:49:54.350Z,16.00
2017-10-17T00:52:20.544Z,16.00
2017-10-17T00:54:47.501Z,16.00
2017-10-17T00:57:14.425Z,16.00
2017-10-17T00:59:40.640Z,16.00
2017-10-17T01:02:06.850Z,16.10
2017-10-17T01:04:33.093Z,16.00
2017-10-17T01:06:59.328Z,16.00
2017-10-17T01:09:25.554Z,15.90
2017-10-17T01:11:52.498Z,15.90
2017-10-17T01:14:18.709Z,15.90
2017-10-17T01:16:44.909Z,15.80
2017-10-17T01:19:11.125Z,15.80
2017-10-17T01:21:37.321Z,15.70
2017-10-17T01:24:07.654Z,15.70
2017-10-17T01:26:34.589Z,15.80
2017-10-17T01:29:07.737Z,15.80
2017-10-17T01:31:33.994Z,15.90
2017-10-17T01:34:00.289Z,15.90
2017-10-17T01:36:26.481Z,15.90
2017-10-17T01:38:53.454Z,15.90
2017-10-17T01:41:19.708Z,15.90
2017-10-17T01:43:45.901Z,15.90
2017-10-17T01:46:12.136Z,15.90
2017-10-17T01:48:39.209Z,15.90
2017-10-17T01:51:06.367Z,15.90
2017-10-17T01:53:32.703Z,15.90
2017-10-17T01:55:58.921Z,15.80
2017-10-17T01:58:28.061Z,15.80
2017-10-17T02:00:56.061Z,15.80
2017-10-17T02:03:22.295Z,15.80
2017-10-17T02:05:48.492Z,15.70
2017-10-17T02:08:15.424Z,15.70
2017-10-17T02:10:46.268Z,15.60
2017-10-17T02:13:12.544Z,15.60
2017-10-17T02:15:38.771Z,15.50
2017-10-17T02:18:07.725Z,15.50
2017-10-17T02:20:34.689Z,15.30
2017-10-17T02:23:00.984Z,15.30
2017-10-17T02:25:28.858Z,15.30
2017-10-17T02:27:59.774Z,15.20
2017-10-17T02:30:26.908Z,15.20
2017-10-17T02:32:53.134Z,15.30
2017-10-17T02:35:27.069Z,15.30
2017-10-17T02:37:53.265Z,15.30
2017-10-17T02:40:19.591Z,15.30
2017-10-17T02:42:45.785Z,15.30
2017-10-17T02:45:11.982Z,15.30
2017-10-17T02:47:38.225Z,15.20
2017-10-17T02:50:06.069Z,15.40
2017-10-17T02:52:32.281Z,15.40
2017-10-17T02:54:58.484Z,15.30
2017-10-17T02:57:24.707Z,15.40
2017-10-17T02:59:52.584Z,15.30
2017-10-17T03:02:32.505Z,15.10
2017-10-17T03:05:03.401Z,15.00
2017-10-17T03:07:29.629Z,14.90
2017-10-17T03:09:55.833Z,14.90
2017-10-17T03:12:22.073Z,14.70
2017-10-17T03:14:48.272Z,14.70
2017-10-17T03:17:14.486Z,14.70
2017-10-17T03:19:40.677Z,14.60
2017-10-17T03:22:10.601Z,14.60
2017-10-17T03:27:37.449Z,14.50
2017-10-17T03:30:03.671Z,14.60
2017-10-17T03:32:29.952Z,14.50
2017-10-17T03:34:57.097Z,14.50
2017-10-17T03:37:31.166Z,14.50
2017-10-17T03:40:13.250Z,14.50
2017-10-17T03:42:40.361Z,14.60
2017-10-17T03:45:16.513Z,14.70
2017-10-17T03:47:46.648Z,14.70
2017-10-17T03:50:13.797Z,14.70
2017-10-17T03:52:43.846Z,14.70
2017-10-17T03:55:10.045Z,14.80
2017-10-17T03:57:36.325Z,14.80
2017-10-17T04:00:05.352Z,14.80
2017-10-17T04:02:32.289Z,14.90
2017-10-17T04:05:16.000Z,14.80
2017-10-17T04:10:44.562Z,14.90
2017-10-17T04:13:41.417Z,14.80
2017-10-17T04:16:34.205Z,14.90
2017-10-17T04:19:06.481Z,14.90
2017-10-17T04:21:34.533Z,14.80
2017-10-17T04:24:01.562Z,14.80
2017-10-17T04:26:28.780Z,14.80
2017-10-17T04:29:02.850Z,14.80
2017-10-17T04:31:41.512Z,14.70
2017-10-17T04:37:00.353Z,14.70
2017-10-17T04:39:26.564Z,14.70
2017-10-17T04:42:13.715Z,14.60
2017-10-17T04:44:48.724Z,14.60
2017-10-17T04:47:15.854Z,14.60
2017-10-17T04:52:55.585Z,14.50
2017-10-17T04:55:24.642Z,14.40
2017-10-17T04:57:50.865Z,14.40
2017-10-17T05:00:17.069Z,14.30
2017-10-17T05:02:46.109Z,14.40
2017-10-17T05:05:43.937Z,14.30
2017-10-17T05:08:16.345Z,14.30
2017-10-17T05:10:47.116Z,14.30
2017-10-17T05:13:19.488Z,14.30
2017-10-17T05:15:57.641Z,14.20
2017-10-17T05:18:27.687Z,14.30
2017-10-17T05:20:54.689Z,14.20
2017-10-17T05:26:17.557Z,14.10
2017-10-17T05:31:38.322Z,14.10
2017-10-17T05:34:09.264Z,14.10
2017-10-17T05:36:46.226Z,14.10
2017-10-17T05:39:13.164Z,14.10
2017-10-17T05:41:39.340Z,14.10
2017-10-17T05:44:28.462Z,14.00
2017-10-17T05:46:54.676Z,14.00
2017-10-17T05:49:23.737Z,14.10
2017-10-17T05:51:50.025Z,14.10
2017-10-17T05:54:16.224Z,14.10
2017-10-17T05:56:42.488Z,14.10
2017-10-17T05:59:08.770Z,14.10
2017-10-17T06:01:34.931Z,14.10
2017-10-17T06:04:01.125Z,14.10
2017-10-17T06:06:28.083Z,14.20
2017-10-17T06:08:55.008Z,14.20
2017-10-17T06:11:21.732Z,14.20
2017-10-17T06:13:47.973Z,14.20
2017-10-17T06:16:14.144Z,14.20
2017-10-17T06:18:40.338Z,14.30
2017-10-17T06:21:06.500Z,14.30
2017-10-17T06:23:32.682Z,14.30
2017-10-17T06:25:58.951Z,14.30
2017-10-17T06:28:25.876Z,14.40
2017-10-17T06:30:52.786Z,14.50
2017-10-17T06:33:18.979Z,14.50
2017-10-17T06:35:45.247Z,14.60
2017-10-17T06:38:12.150Z,14.60
2017-10-17T06:40:38.349Z,14.60
2017-10-17T06:43:05.292Z,14.60
2017-10-17T06:45:31.485Z,14.50
2017-10-17T06:47:57.677Z,14.60
2017-10-17T06:50:23.957Z,14.60
2017-10-17T06:52:50.134Z,14.60
2017-10-17T06:55:17.121Z,14.70
2017-10-17T06:57:43.361Z,14.70
2017-10-17T07:00:09.536Z,14.70
2017-10-17T07:02:35.720Z,14.80
2017-10-17T07:05:01.943Z,14.90
2017-10-17T07:07:28.139Z,15.00
2017-10-17T07:09:54.337Z,15.10
2017-10-17T07:12:20.507Z,15.10
2017-10-17T07:14:46.806Z,15.20
2017-10-17T07:17:12.956Z,15.30
2017-10-17T07:19:39.136Z,15.30
2017-10-17T07:22:05.283Z,15.40
2017-10-17T07:24:31.504Z,15.40
2017-10-17T07:26:58.540Z,15.40
2017-10-17T07:29:24.728Z,15.40
2017-10-17T07:31:50.923Z,15.50
2017-10-17T07:34:17.124Z,15.60
2017-10-17T07:36:44.037Z,15.80
2017-10-17T07:39:10.251Z,15.80
2017-10-17T07:41:36.415Z,15.80
2017-10-17T07:44:02.616Z,15.90
2017-10-17T07:46:29.525Z,16.20
2017-10-17T07:48:55.713Z,16.10
2017-10-17T07:51:22.679Z,16.30
2017-10-17T07:53:49.616Z,16.30
2017-10-17T07:56:15.783Z,16.30
2017-10-17T07:58:41.980Z,16.30
2017-10-17T08:01:08.152Z,16.30
2017-10-17T08:03:35.092Z,16.30
2017-10-17T08:06:01.260Z,16.30
2017-10-17T08:08:28.185Z,16.30
2017-10-17T08:10:54.362Z,16.30
2017-10-17T08:13:21.320Z,16.50
2017-10-17T08:15:47.521Z,16.50
2017-10-17T08:18:13.697Z,16.50
2017-10-17T08:20:40.656Z,16.70
2017-10-17T08:23:07.579Z,16.70
2017-10-17T08:25:33.736Z,16.70
2017-10-17T08:27:59.911Z,16.80
2017-10-17T08:30:26.811Z,17.00
2017-10-17T08:32:53.016Z,16.90
2017-10-17T08:35:19.165Z,17.10
2017-10-17T08:37:45.423Z,17.20
2017-10-17T08:40:11.588Z,17.20
2017-10-17T08:42:37.788Z,17.20
2017-10-17T08:45:03.944Z,17.30
2017-10-17T08:47:30.135Z,17.30
2017-10-17T08:49:56.331Z,17.20
2017-10-17T08:52:22.538Z,17.30
2017-10-17T08:54:48.716Z,17.40
2017-10-17T08:57:14.893Z,17.30
2017-10-17T08:59:41.092Z,17.40
2017-10-17T09:02:07.267Z,17.40
2017-10-17T09:04:33.456Z,17.50
2017-10-17T09:06:59.604Z,17.60
2017-10-17T09:09:25.785Z,17.60
2017-10-17T09:11:51.974Z,17.60
2017-10-17T09:14:18.256Z,17.70
2017-10-17T09:16:44.412Z,17.90
2017-10-17T09:19:10.601Z,17.90
2017-10-17T09:21:36.788Z,17.90
2017-10-17T09:24:02.965Z,17.90
2017-10-17T09:26:29.868Z,17.90
2017-10-17T09:28:56.043Z,17.90
2017-10-17T09:31:22.228Z,17.90
2017-10-17T09:33:48.383Z,18.00
2017-10-17T09:36:14.562Z,18.10
2017-10-17T09:38:40.772Z,18.30
2017-10-17T09:41:06.927Z,18.40
2017-10-17T09:43:33.105Z,18.30
2017-10-17T09:45:59.255Z,18.40
2017-10-17T09:48:26.212Z,18.30
2017-10-17T09:50:53.109Z,18.40
2017-10-17T09:53:19.268Z,18.40
2017-10-17T09:55:45.450Z,18.50
2017-10-17T09:58:12.361Z,18.60
2017-10-17T10:00:38.578Z,18.50
2017-10-17T10:03:04.736Z,18.60
2017-10-17T10:05:30.963Z,18.70
2017-10-17T10:07:57.147Z,18.60
2017-10-17T10:10:23.317Z,18.50
2017-10-17T10:12:50.213Z,18.50
2017-10-17T10:15:16.388Z,18.50
2017-10-17T10:17:43.293Z,18.60
2017-10-17T10:20:09.468Z,18.60
2017-10-17T10:22:35.641Z,18.60
2017-10-17T10:25:01.831Z,18.60
2017-10-17T10:27:27.996Z,18.60
2017-10-17T10:29:54.176Z,18.50
2017-10-17T10:32:20.372Z,18.60
2017-10-17T10:34:46.543Z,18.60
2017-10-17T10:37:12.692Z,18.70
2017-10-17T10:39:38.868Z,18.60
2017-10-17T10:42:05.060Z,18.70
2017-10-17T10:44:31.244Z,18.80
2017-10-17T10:46:58.156Z,19.00
2017-10-17T10:49:24.311Z,18.90
2017-10-17T10:51:50.472Z,19.00
2017-10-17T10:54:17.363Z,19.10
2017-10-17T10:56:43.529Z,19.10
2017-10-17T10:59:09.732Z,19.00
2017-10-17T11:01:35.903Z,19.10
2017-10-17T11:04:02.081Z,19.10
2017-10-17T11:06:28.275Z,19.00
2017-10-17T11:08:54.428Z,19.00
2017-10-17T11:11:20.643Z,19.00
2017-10-17T11:13:46.803Z,19.00
2017-10-17T11:16:12.981Z,19.00
2017-10-17T11:18:39.140Z,19.00
2017-10-17T11:21:06.057Z,19.00
2017-10-17T11:23:32.209Z,19.00
2017-10-17T11:25:58.392Z,18.90
2017-10-17T11:28:25.290Z,18.70
2017-10-17T11:30:51.527Z,18.70
2017-10-17T11:33:24.668Z,18.90
2017-10-17T11:35:51.005Z,18.80
2017-10-17T11:38:17.185Z,18.80
2017-10-17T11:40:56.454Z,18.80
2017-10-17T11:43:35.037Z,18.70
2017-10-17T11:46:01.234Z,18.90
2017-10-17T11:48:27.401Z,19.00
2017-10-17T11:50:53.639Z,18.80
2017-10-17T11:53:19.856Z,18.70
2017-10-17T11:55:46.033Z,18.70
2017-10-17T11:58:12.267Z,18.60
2017-10-17T12:00:38.680Z,18.60
2017-10-17T12:03:04.868Z,18.80
2017-10-17T12:05:31.080Z,18.90
2017-10-17T12:07:57.320Z,19.10
2017-10-17T12:10:23.495Z,19.10
2017-10-17T12:12:49.715Z,19.40
2017-10-17T12:15:15.896Z,19.40
2017-10-17T12:17:42.115Z,19.60
2017-10-17T12:20:08.320Z,20.10
2017-10-17T12:22:34.535Z,20.50
2017-10-17T12:25:01.456Z,20.00
2017-10-17T12:30:21.431Z,19.90
2017-10-17T12:32:48.394Z,20.30
2017-10-17T12:35:15.311Z,20.40
2017-10-17T12:37:41.594Z,20.40
2017-10-17T12:40:07.760Z,19.90
2017-10-17T12:42:33.940Z,20.00
2017-10-17T12:45:00.145Z,20.20
2017-10-17T12:47:26.335Z,20.40
2017-10-17T12:49:52.643Z,20.20
2017-10-17T12:52:18.843Z,20.20
2017-10-17T12:54:45.840Z,20.60
2017-10-17T12:57:12.096Z,20.60
2017-10-17T12:59:38.311Z,20.70
2017-10-17T13:02:04.576Z,20.50
2017-10-17T13:04:30.748Z,20.60
2017-10-17T13:06:56.983Z,20.60
2017-10-17T13:09:23.332Z,20.00
2017-10-17T13:11:49.524Z,19.80
2017-10-17T13:14:15.706Z,20.00
2017-10-17T13:16:41.939Z,20.10
2017-10-17T13:19:08.123Z,20.10
2017-10-17T13:21:34.473Z,20.00
2017-10-17T13:24:01.437Z,19.90
2017-10-17T13:26:28.349Z,20.00
2017-10-17T13:28:54.548Z,20.00
2017-10-17T13:31:21.513Z,20.10
2017-10-17T13:33:47.701Z,20.10
2017-10-17T13:36:13.874Z,20.10
2017-10-17T13:38:40.786Z,19.60
2017-10-17T13:41:06.978Z,19.60
2017-10-17T13:43:33.898Z,19.50
2017-10-17T13:46:15.025Z,19.50
2017-10-17T13:48:41.961Z,19.90
2017-10-17T13:51:08.130Z,19.80
2017-10-17T13:53:35.113Z,19.90
2017-10-17T13:56:01.328Z,19.90
2017-10-17T13:58:28.279Z,19.80
2017-10-17T14:00:54.467Z,19.80
2017-10-17T14:03:20.644Z,19.90
2017-10-17T14:05:46.846Z,19.60
2017-10-17T14:08:13.018Z,19.60
2017-10-17T14:10:39.304Z,19.50
2017-10-17T14:13:06.220Z,19.50
2017-10-17T14:15:32.433Z,19.50
2017-10-17T14:17:58.669Z,19.60
2017-10-17T14:20:24.868Z,19.70
2017-10-17T14:22:51.075Z,19.70
2017-10-17T14:25:17.285Z,19.50
2017-10-17T14:27:43.512Z,19.60
2017-10-17T14:30:13.291Z,19.60
2017-10-17T14:32:39.453Z,19.60
2017-10-17T14:35:05.640Z,19.50
2017-10-17T14:37:31.816Z,19.40
2017-10-17T14:39:58.849Z,19.40
2017-10-17T14:42:25.009Z,19.40
2017-10-17T14:44:51.251Z,19.30
2017-10-17T14:47:17.408Z,19.20
2017-10-17T14:49:43.594Z,19.10
2017-10-17T14:52:10.585Z,19.00
2017-10-17T14:54:36.770Z,19.00
2017-10-17T14:57:02.914Z,18.90
2017-10-17T14:59:30.756Z,18.90
2017-10-17T15:04:50.221Z,18.70
2017-10-17T15:07:17.013Z,18.60
2017-10-17T15:09:43.371Z,18.70
2017-10-17T15:15:01.631Z,18.60
2017-10-17T15:17:28.682Z,18.40
2017-10-17T15:19:56.255Z,18.30
2017-10-17T15:22:22.689Z,18.30
2017-10-17T15:24:49.037Z,18.20
2017-10-17T15:27:16.164Z,18.10
2017-10-17T15:29:58.835Z,18.10
2017-10-17T15:32:25.405Z,18.00
2017-10-17T15:34:52.539Z,17.90
2017-10-17T15:37:19.432Z,17.90
2017-10-17T15:39:46.621Z,17.80
2017-10-17T15:44:46.101Z,17.70
2017-10-17T15:47:12.350Z,17.50
2017-10-17T15:49:38.751Z,17.40
2017-10-17T15:52:05.088Z,17.40
2017-10-17T15:54:31.394Z,17.40
2017-10-17T15:56:58.196Z,17.30
2017-10-17T15:59:24.566Z,17.30
2017-10-17T16:01:50.887Z,17.20
2017-10-17T16:04:17.252Z,17.20
2017-10-17T16:06:43.570Z,17.10
2017-10-17T16:09:09.856Z,17.00
2017-10-17T16:11:36.201Z,17.00
2017-10-17T16:14:03.713Z,16.80
2017-10-17T16:16:30.649Z,16.60
2017-10-17T16:18:56.993Z,16.50
2017-10-17T16:21:23.302Z,16.50
2017-10-17T16:23:49.628Z,16.40
2017-10-17T16:26:17.475Z,16.20
2017-10-17T16:28:47.078Z,16.10
2017-10-17T16:31:15.104Z,16.00
2017-10-17T16:33:41.534Z,16.00
2017-10-17T16:36:07.826Z,16.00
2017-10-17T16:38:34.145Z,15.90
2017-10-17T16:41:00.689Z,15.90
2017-10-17T16:43:27.038Z,15.80
2017-10-17T16:45:54.051Z,15.60
2017-10-17T16:48:20.358Z,15.60
2017-10-17T16:50:48.600Z,15.50
2017-10-17T16:53:14.856Z,15.40
2017-10-17T16:55:41.124Z,15.50
2017-10-17T16:58:07.352Z,15.50
2017-10-17T17:00:33.560Z,15.50
2017-10-17T17:02:59.703Z,15.50
2017-10-17T17:05:26.665Z,15.40
2017-10-17T17:07:52.878Z,15.40
2017-10-17T17:10:20.159Z,15.40
2017-10-17T17:12:46.351Z,15.40
2017-10-17T17:15:13.281Z,15.50
2017-10-17T17:17:39.469Z,15.50
2017-10-17T17:20:05.668Z,15.50
2017-10-17T17:22:31.819Z,15.40
2017-10-17T17:24:58.025Z,15.40
2017-10-17T17:27:24.191Z,15.40
2017-10-17T17:29:50.422Z,15.40
2017-10-17T17:32:16.596Z,15.40
2017-10-17T17:34:43.518Z,15.40
2017-10-17T17:37:09.700Z,15.30
2017-10-17T17:39:36.636Z,15.30
2017-10-17T17:42:02.825Z,15.30
2017-10-17T17:44:29.033Z,15.30
2017-10-17T17:46:55.211Z,15.30
2017-10-17T17:49:21.445Z,15.20
2017-10-17T17:51:47.635Z,15.00
2017-10-17T17:54:13.846Z,14.70
2017-10-17T17:56:40.014Z,14.60
2017-10-17T17:59:06.956Z,14.20
2017-10-17T18:01:33.117Z,14.20
2017-10-17T18:03:59.305Z,14.10
2017-10-17T18:06:25.471Z,14.00
2017-10-17T18:08:51.689Z,13.90
2017-10-17T18:11:18.387Z,14.10
2017-10-17T18:13:44.600Z,14.10
2017-10-17T18:16:10.788Z,14.20
2017-10-17T18:18:36.994Z,14.20
2017-10-17T18:21:03.172Z,14.30
2017-10-17T18:23:29.373Z,14.30
2017-10-17T18:25:55.564Z,14.30
2017-10-17T18:28:21.737Z,14.20
2017-10-17T18:30:47.924Z,14.10
2017-10-17T18:33:14.125Z,14.10
2017-10-17T18:35:40.475Z,14.10
2017-10-17T18:38:06.745Z,14.10
2017-10-17T18:40:32.899Z,14.10
2017-10-17T18:42:59.072Z,14.20
2017-10-17T18:45:25.981Z,14.10
2017-10-17T18:47:52.151Z,14.10
2017-10-17T18:50:18.426Z,14.00
2017-10-17T18:52:45.336Z,14.00
2017-10-17T18:55:11.538Z,14.00
2017-10-17T18:57:37.760Z,14.00
2017-10-17T19:00:04.687Z,14.10
2017-10-17T19:02:30.888Z,14.10
2017-10-17T19:04:57.076Z,14.00
2017-10-17T19:07:23.231Z,14.00
2017-10-17T19:09:49.411Z,14.00
2017-10-17T19:12:15.576Z,14.00
2017-10-17T19:14:41.757Z,14.10
2017-10-17T19:17:07.908Z,14.00
2017-10-17T19:19:49.827Z,14.00
2017-10-17T19:22:16.732Z,14.00
2017-10-17T19:24:42.920Z,14.00
2017-10-17T19:27:09.823Z,14.00
2017-10-17T19:29:36.019Z,13.90
2017-10-17T19:32:02.980Z,13.90
2017-10-17T19:34:29.187Z,13.80
2017-10-17T19:36:55.343Z,13.80
2017-10-17T19:39:21.541Z,13.80
2017-10-17T19:41:47.710Z,13.80
2017-10-17T19:44:13.889Z,13.80
2017-10-17T19:46:40.788Z,13.70
2017-10-17T19:49:06.969Z,13.70
2017-10-17T19:51:33.143Z,13.70
2017-10-17T19:53:59.367Z,13.70
2017-10-17T19:56:26.269Z,13.70
2017-10-17T19:58:52.468Z,13.60
2017-10-17T20:01:18.634Z,13.60
2017-10-17T20:03:44.849Z,13.60
2017-10-17T20:06:11.752Z,13.60
2017-10-17T20:08:37.955Z,13.50
2017-10-17T20:11:04.847Z,13.50
2017-10-17T20:13:31.036Z,13.50
2017-10-17T20:15:57.190Z,13.50
2017-10-17T20:18:24.132Z,13.60
2017-10-17T20:20:50.311Z,13.60
2017-10-17T20:23:23.339Z,13.60
2017-10-17T20:25:49.691Z,13.60
2017-10-17T20:28:15.903Z,13.50
2017-10-17T20:30:42.175Z,13.50
2017-10-17T20:33:08.392Z,13.40
2017-10-17T20:35:34.569Z,13.40
2017-10-17T20:38:00.785Z,13.50
2017-10-17T20:40:26.972Z,13.40
2017-10-17T20:42:53.181Z,13.40
2017-10-17T20:45:19.372Z,13.40
2017-10-17T20:47:45.566Z,13.40
2017-10-17T20:50:11.749Z,13.40
2017-10-17T20:52:37.928Z,13.40
2017-10-17T20:55:04.129Z,13.40
2017-10-17T20:57:30.332Z,13.20
2017-10-17T20:59:56.489Z,13.20
2017-10-17T21:02:22.711Z,13.20
2017-10-17T21:04:48.908Z,13.20
2017-10-17T21:07:15.836Z,13.10
2017-10-17T21:09:43.514Z,13.10
2017-10-17T21:12:09.708Z,13.00
2017-10-17T21:14:35.884Z,13.10
2017-10-17T21:17:02.110Z,13.00
2017-10-17T21:19:28.288Z,13.00
2017-10-17T21:21:54.482Z,13.00
2017-10-17T21:24:20.680Z,12.80
2017-10-17T21:26:47.017Z,12.80
2017-10-17T21:29:13.316Z,12.80
2017-10-17T21:31:39.504Z,12.80
2017-10-17T21:34:05.706Z,12.80
2017-10-17T21:36:31.869Z,12.80
2017-10-17T21:38:58.826Z,12.90
2017-10-17T21:41:25.005Z,12.80
2017-10-17T21:43:51.212Z,12.80
2017-10-17T21:46:17.401Z,12.80
2017-10-17T21:48:44.352Z,12.80
2017-10-17T21:51:11.244Z,12.80
2017-10-17T21:53:37.460Z,12.80
2017-10-17T21:56:04.392Z,12.70
2017-10-17T21:58:30.577Z,12.70
2017-10-17T22:01:01.777Z,12.70
2017-10-17T22:03:28.003Z,12.70
2017-10-17T22:05:54.184Z,12.60
2017-10-17T22:08:20.656Z,12.60
2017-10-17T22:10:47.608Z,12.60
2017-10-17T22:13:14.539Z,12.60
2017-10-17T22:15:40.720Z,12.60
2017-10-17T22:18:06.924Z,12.60
2017-10-17T22:20:33.093Z,12.60
2017-10-17T22:23:00.005Z,12.50
2017-10-17T22:25:26.152Z,12.50
2017-10-17T22:27:52.354Z,12.50
2017-10-17T22:30:18.540Z,12.50
2017-10-17T22:32:44.723Z,12.40
2017-10-17T22:35:11.613Z,12.40
2017-10-17T22:37:37.811Z,12.40
2017-10-17T22:40:03.976Z,12.30
2017-10-17T22:42:30.229Z,12.30
2017-10-17T22:44:56.369Z,12.20
2017-10-17T22:47:22.608Z,12.20
2017-10-17T22:49:48.791Z,12.10
2017-10-17T22:52:15.692Z,11.80
2017-10-17T22:54:42.609Z,11.90
2017-10-17T22:57:08.772Z,11.90
2017-10-17T22:59:35.081Z,11.90
2017-10-17T23:02:01.244Z,11.80
2017-10-17T23:04:27.428Z,11.70
2017-10-17T23:06:54.340Z,11.60
2017-10-17T23:09:20.663Z,11.60
2017-10-17T23:11:46.816Z,11.30
2017-10-17T23:14:13.863Z,11.00
2017-10-17T23:16:47.942Z,11.00
2017-10-17T23:19:27.275Z,11.00
2017-10-17T23:21:53.448Z,11.00
2017-10-17T23:24:20.441Z,11.10
2017-10-17T23:26:46.603Z,11.10
2017-10-17T23:29:13.525Z,10.80
2017-10-17T23:31:39.716Z,10.80
